Time,TemperatureF,DewpointF,PressureIn,WindDirection,WindDirectionDegrees,WindSpeedMPH,WindSpeedGustMPH,Humidity,HourlyPrecipIn,Conditions,Clouds,dailyrainin,SoftwareType,DateUTC
2013-02-18 00:01:00,39.0,37.0,-100.00,NNE,31,5.0,9.0,94,-99.99,,,-99.99,,2013-02-18 08:01:00,
2013-02-18 00:11:00,40.0,38.0,-100.00,NE,50,3.0,5.0,94,-99.99,,,-99.99,,2013-02-18 08:11:00,
2013-02-18 00:21:00,40.0,38.0,-100.00,NE,44,4.0,6.0,93,-99.99,,,-99.99,,2013-02-18 08:21:00,
2013-02-18 00:32:00,40.0,38.0,-100.00,NE,47,3.0,6.0,93,-99.99,,,-99.99,,2013-02-18 08:32:00,
2013-02-18 00:41:00,41.0,39.0,-100.00,NNE,31,4.0,6.0,93,-99.99,,,-99.99,,2013-02-18 08:41:00,
2013-02-18 00:52:00,42.0,40.0,-100.00,NE,34,3.0,5.0,93,-99.99,,,-99.99,,2013-02-18 08:52:00,
2013-02-18 01:02:00,42.0,40.0,-100.00,NE,53,3.0,6.0,93,-99.99,,,-99.99,,2013-02-18 09:02:00,
2013-02-18 01:11:00,42.0,40.0,-100.00,NE,54,4.0,5.0,92,-99.99,,,-99.99,,2013-02-18 09:11:00,
2013-02-18 01:22:00,41.0,39.0,-100.00,ENE,66,3.0,4.0,92,-99.99,,,-99.99,,2013-02-18 09:22:00,
2013-02-18 01:31:00,41.0,39.0,-100.00,ENE,62,4.0,5.0,92,-99.99,,,-99.99,,2013-02-18 09:31:00,
2013-02-18 01:41:00,41.0,39.0,-100.00,ENE,59,4.0,5.0,93,-99.99,,,-99.99,,2013-02-18 09:41:00,
2013-02-18 01:51:00,41.0,39.0,-100.00,ENE,58,4.0,5.0,93,-99.99,,,-99.99,,2013-02-18 09:51:00,
2013-02-18 02:01:00,41.0,39.0,-100.00,ENE,61,4.0,5.0,93,-99.99,,,-99.99,,2013-02-18 10:01:00,
2013-02-18 02:11:00,40.0,38.0,-100.00,NE,56,4.0,5.0,93,-99.99,,,-99.99,,2013-02-18 10:11:00,
2013-02-18 02:21:00,40.0,38.0,-100.00,NE,56,4.0,6.0,94,-99.99,,,-99.99,,2013-02-18 10:21:00,
2013-02-18 02:31:00,40.0,38.0,-100.00,NE,54,3.0,6.0,94,-99.99,,,-99.99,,2013-02-18 10:31:00,
2013-02-18 02:41:00,40.0,38.0,-100.00,ENE,64,3.0,4.0,94,-99.99,,,-99.99,,2013-02-18 10:41:00,
2013-02-18 02:51:00,40.0,38.0,-100.00,NE,55,3.0,5.0,94,-99.99,,,-99.99,,2013-02-18 10:51:00,
2013-02-18 03:01:00,41.0,39.0,-100.00,ENE,57,3.0,5.0,94,-99.99,,,-99.99,,2013-02-18 11:01:00,
2013-02-18 03:11:00,41.0,39.0,-100.00,ENE,62,3.0,4.0,94,-99.99,,,-99.99,,2013-02-18 11:11:00,
2013-02-18 03:21:00,41.0,39.0,-100.00,ENE,64,3.0,4.0,94,-99.99,,,-99.99,,2013-02-18 11:21:00,
2013-02-18 03:31:00,41.0,39.0,-100.00,ENE,66,4.0,5.0,94,-99.99,,,-99.99,,2013-02-18 11:31:00,
2013-02-18 03:42:00,41.0,39.0,-100.00,ENE,66,3.0,5.0,94,-99.99,,,-99.99,,2013-02-18 11:42:00,
2013-02-18 03:52:00,42.0,40.0,-100.00,ENE,61,3.0,5.0,94,-99.99,,,-99.99,,2013-02-18 11:52:00,
2013-02-18 04:01:00,43.0,41.0,-100.00,NE,52,4.0,5.0,93,-99.99,,,-99.99,,2013-02-18 12:01:00,
2013-02-18 04:11:00,43.0,41.0,-100.00,NE,44,3.0,5.0,93,-99.99,,,-99.99,,2013-02-18 12:11:00,
2013-02-18 04:21:00,44.0,42.0,-100.00,NE,38,2.0,5.0,93,-99.99,,,-99.99,,2013-02-18 12:21:00,
2013-02-18 04:31:00,45.0,43.0,-100.00,ENE,62,2.0,4.0,92,-99.99,,,-99.99,,2013-02-18 12:31:00,
2013-02-18 04:42:00,45.0,43.0,-100.00,NE,34,2.0,5.0,92,-99.99,,,-99.99,,2013-02-18 12:42:00,
2013-02-18 04:52:00,45.0,43.0,-100.00,NE,44,2.0,4.0,92,-99.99,,,-99.99,,2013-02-18 12:52:00,
2013-02-18 05:02:00,45.0,43.0,-100.00,NE,53,2.0,3.0,91,-99.99,,,-99.99,,2013-02-18 13:02:00,
2013-02-18 05:11:00,45.0,43.0,-100.00,ENE,60,2.0,3.0,91,-99.99,,,-99.99,,2013-02-18 13:11:00,
2013-02-18 05:22:00,46.0,44.0,-100.00,NE,53,3.0,4.0,92,-99.99,,,-99.99,,2013-02-18 13:22:00,
2013-02-18 05:32:00,46.0,44.0,-100.00,NE,46,2.0,4.0,92,-99.99,,,-99.99,,2013-02-18 13:32:00,
2013-02-18 05:42:00,46.0,44.0,-100.00,NE,43,3.0,4.0,92,-99.99,,,-99.99,,2013-02-18 13:42:00,
2013-02-18 05:52:00,46.0,44.0,-100.00,NE,47,2.0,4.0,91,-99.99,,,-99.99,,2013-02-18 13:52:00,
2013-02-18 06:02:00,47.0,45.0,-100.00,NE,52,3.0,4.0,91,-99.99,,,-99.99,,2013-02-18 14:02:00,
2013-02-18 06:11:00,47.0,44.0,-100.00,ENE,60,4.0,5.0,90,-99.99,,,-99.99,,2013-02-18 14:11:00,
2013-02-18 06:21:00,47.0,44.0,-100.00,NE,56,3.0,5.0,89,-99.99,,,-99.99,,2013-02-18 14:21:00,
2013-02-18 06:32:00,48.0,45.0,-100.00,ENE,58,4.0,6.0,88,-99.99,,,-99.99,,2013-02-18 14:32:00,
2013-02-18 06:41:00,48.0,44.0,-100.00,NE,56,3.0,6.0,86,-99.99,,,-99.99,,2013-02-18 14:41:00,
2013-02-18 06:52:00,48.0,44.0,-100.00,NE,50,3.0,5.0,85,-99.99,,,-99.99,,2013-02-18 14:52:00,
2013-02-18 07:01:00,48.0,44.0,-100.00,NE,50,4.0,6.0,85,-99.99,,,-99.99,,2013-02-18 15:01:00,
2013-02-18 07:11:00,48.0,44.0,-100.00,NE,41,4.0,6.0,85,-99.99,,,-99.99,,2013-02-18 15:11:00,
2013-02-18 07:21:00,48.0,44.0,-100.00,NE,46,4.0,7.0,85,-99.99,,,-99.99,,2013-02-18 15:21:00,
2013-02-18 07:31:00,48.0,44.0,-100.00,NE,48,4.0,6.0,85,-99.99,,,-99.99,,2013-02-18 15:31:00,
2013-02-18 07:42:00,49.0,45.0,-100.00,NE,45,4.0,6.0,85,-99.99,,,-99.99,,2013-02-18 15:42:00,
2013-02-18 07:52:00,49.0,44.0,-100.00,NE,49,4.0,6.0,84,-99.99,,,-99.99,,2013-02-18 15:52:00,
2013-02-18 08:01:00,49.0,44.0,-100.00,NE,45,4.0,6.0,83,-99.99,,,-99.99,,2013-02-18 16:01:00,
2013-02-18 08:21:00,50.0,44.0,-100.00,NE,38,4.0,6.0,81,-99.99,,,-99.99,,2013-02-18 16:21:00,
2013-02-18 08:31:00,50.0,44.0,-100.00,NE,40,4.0,6.0,79,-99.99,,,-99.99,,2013-02-18 16:31:00,
2013-02-18 08:42:00,51.0,44.0,-100.00,NE,49,3.0,6.0,77,-99.99,,,-99.99,,2013-02-18 16:42:00,
2013-02-18 08:52:00,51.0,44.0,-100.00,NE,46,4.0,5.0,76,-99.99,,,-99.99,,2013-02-18 16:52:00,
2013-02-18 09:02:00,51.0,43.0,-100.00,ENE,65,4.0,7.0,74,-99.99,,,-99.99,,2013-02-18 17:02:00,
2013-02-18 09:11:00,51.0,43.0,-100.00,ENE,64,3.0,7.0,74,-99.99,,,-99.99,,2013-02-18 17:11:00,
2013-02-18 09:21:00,52.0,43.0,-100.00,NE,49,2.0,6.0,72,-99.99,,,-99.99,,2013-02-18 17:21:00,
2013-02-18 09:32:00,52.0,43.0,-100.00,ESE,102,3.0,7.0,72,-99.99,,,-99.99,,2013-02-18 17:32:00,
2013-02-18 09:42:00,52.0,43.0,-100.00,SSE,159,5.0,11.0,71,-99.99,,,-99.99,,2013-02-18 17:42:00,
2013-02-18 09:52:00,52.0,43.0,-100.00,SSE,159,5.0,11.0,71,-99.99,,,-99.99,,2013-02-18 17:52:00,
2013-02-18 10:01:00,52.0,43.0,-100.00,SSE,159,5.0,11.0,71,-99.99,,,-99.99,,2013-02-18 18:01:00,
2013-02-18 10:11:00,54.0,44.0,-100.00,South,186,4.0,9.0,68,-99.99,,,-99.99,,2013-02-18 18:11:00,
2013-02-18 10:22:00,54.0,43.0,-100.00,South,171,5.0,10.0,66,-99.99,,,-99.99,,2013-02-18 18:22:00,
2013-02-18 10:32:00,55.0,43.0,-100.00,SSE,165,4.0,8.0,64,-99.99,,,-99.99,,2013-02-18 18:32:00,
2013-02-18 10:42:00,55.0,43.0,-100.00,SSW,201,3.0,7.0,63,-99.99,,,-99.99,,2013-02-18 18:42:00,
2013-02-18 10:52:00,55.0,43.0,-100.00,WSW,245,4.0,8.0,63,-99.99,,,-99.99,,2013-02-18 18:52:00,
2013-02-18 11:02:00,56.0,43.0,-100.00,SW,222,4.0,8.0,61,-99.99,,,-99.99,,2013-02-18 19:02:00,
2013-02-18 11:21:00,57.0,43.0,-100.00,West,266,4.0,10.0,59,-99.99,,,-99.99,,2013-02-18 19:21:00,
2013-02-18 11:32:00,58.0,43.0,-100.00,SSW,211,3.0,8.0,58,-99.99,,,-99.99,,2013-02-18 19:32:00,
2013-02-18 11:42:00,58.0,43.0,-100.00,SSW,212,3.0,7.0,57,-99.99,,,-99.99,,2013-02-18 19:42:00,
2013-02-18 11:52:00,59.0,43.0,-100.00,WSW,237,4.0,7.0,56,-99.99,,,-99.99,,2013-02-18 19:52:00,
2013-02-18 12:01:00,58.0,44.0,-100.00,SW,228,7.0,16.0,59,-99.99,,,-99.99,,2013-02-18 20:01:00,
2013-02-18 12:11:00,58.0,44.0,-100.00,SSW,208,7.0,11.0,60,-99.99,,,-99.99,,2013-02-18 20:11:00,
2013-02-18 12:22:00,58.0,44.0,-100.00,South,188,6.0,9.0,60,-99.99,,,-99.99,,2013-02-18 20:22:00,
2013-02-18 12:32:00,58.0,44.0,-100.00,South,188,6.0,9.0,60,-99.99,,,-99.99,,2013-02-18 20:32:00,
2013-02-18 12:42:00,58.0,44.0,-100.00,South,188,6.0,9.0,60,-99.99,,,-99.99,,2013-02-18 20:42:00,
2013-02-18 12:52:00,58.0,45.0,-100.00,WSW,246,6.0,10.0,61,-99.99,,,-99.99,,2013-02-18 20:52:00,
2013-02-18 13:02:00,58.0,45.0,-100.00,SW,228,7.0,15.0,61,-99.99,,,-99.99,,2013-02-18 21:02:00,
2013-02-18 13:11:00,59.0,46.0,-100.00,SW,221,7.0,13.0,61,-99.99,,,-99.99,,2013-02-18 21:11:00,
2013-02-18 13:21:00,58.0,45.0,-100.00,SW,234,7.0,12.0,63,-99.99,,,-99.99,,2013-02-18 21:21:00,
2013-02-18 13:32:00,58.0,45.0,-100.00,SW,222,6.0,14.0,63,-99.99,,,-99.99,,2013-02-18 21:32:00,
2013-02-18 13:42:00,59.0,46.0,-100.00,SSW,204,6.0,11.0,61,-99.99,,,-99.99,,2013-02-18 21:42:00,
2013-02-18 13:52:00,59.0,46.0,-100.00,SSW,210,6.0,10.0,62,-99.99,,,-99.99,,2013-02-18 21:52:00,
2013-02-18 14:01:00,59.0,46.0,-100.00,SSW,212,6.0,10.0,62,-99.99,,,-99.99,,2013-02-18 22:01:00,
2013-02-18 14:11:00,59.0,46.0,-100.00,SSW,212,6.0,10.0,62,-99.99,,,-99.99,,2013-02-18 22:11:00,
2013-02-18 14:21:00,59.0,46.0,-100.00,SSW,201,7.0,10.0,61,-99.99,,,-99.99,,2013-02-18 22:21:00,
2013-02-18 14:32:00,59.0,46.0,-100.00,SSW,206,6.0,12.0,62,-99.99,,,-99.99,,2013-02-18 22:32:00,
2013-02-18 14:52:00,59.0,46.0,-100.00,SSW,203,7.0,11.0,62,-99.99,,,-99.99,,2013-02-18 22:52:00,
2013-02-18 15:01:00,59.0,46.0,-100.00,SSW,203,7.0,11.0,62,-99.99,,,-99.99,,2013-02-18 23:01:00,
2013-02-18 15:12:00,58.0,46.0,-100.00,SSW,206,7.0,12.0,64,-99.99,,,-99.99,,2013-02-18 23:12:00,
2013-02-18 15:22:00,58.0,46.0,-100.00,SSW,199,8.0,13.0,64,-99.99,,,-99.99,,2013-02-18 23:22:00,
2013-02-18 15:32:00,58.0,46.0,-100.00,SSW,192,8.0,12.0,65,-99.99,,,-99.99,,2013-02-18 23:32:00,
2013-02-18 15:52:00,57.0,46.0,-100.00,SSW,204,8.0,13.0,67,-99.99,,,-99.99,,2013-02-18 23:52:00,
2013-02-18 16:02:00,57.0,46.0,-100.00,SSW,196,8.0,14.0,67,-99.99,,,-99.99,,2013-02-19 00:02:00,
2013-02-18 16:11:00,56.0,45.0,-100.00,SSW,197,8.0,13.0,67,-99.99,,,-99.99,,2013-02-19 00:11:00,
2013-02-18 16:22:00,56.0,45.0,-100.00,SSW,199,7.0,11.0,67,-99.99,,,-99.99,,2013-02-19 00:22:00,
2013-02-18 16:32:00,56.0,45.0,-100.00,SW,214,6.0,9.0,67,-99.99,,,-99.99,,2013-02-19 00:32:00,
2013-02-18 16:42:00,56.0,46.0,-100.00,SSW,211,6.0,10.0,68,-99.99,,,-99.99,,2013-02-19 00:42:00,
2013-02-18 16:52:00,55.0,45.0,-100.00,SSW,207,7.0,11.0,70,-99.99,,,-99.99,,2013-02-19 00:52:00,
2013-02-18 17:02:00,55.0,45.0,-100.00,SSW,207,7.0,11.0,70,-99.99,,,-99.99,,2013-02-19 01:02:00,
2013-02-18 17:12:00,54.0,45.0,-100.00,South,187,6.0,10.0,72,-99.99,,,-99.99,,2013-02-19 01:12:00,
2013-02-18 17:22:00,54.0,46.0,-100.00,South,189,5.0,8.0,73,-99.99,,,-99.99,,2013-02-19 01:22:00,
2013-02-18 17:33:00,54.0,46.0,-100.00,South,190,5.0,8.0,74,-99.99,,,-99.99,,2013-02-19 01:33:00,
2013-02-18 17:42:00,53.0,45.0,-100.00,SSW,209,5.0,8.0,75,-99.99,,,-99.99,,2013-02-19 01:42:00,
2013-02-18 17:53:00,53.0,45.0,-100.00,SSW,200,5.0,8.0,75,-99.99,,,-99.99,,2013-02-19 01:53:00,
2013-02-18 18:01:00,53.0,45.0,-100.00,SSW,201,4.0,6.0,75,-99.99,,,-99.99,,2013-02-19 02:01:00,
2013-02-18 18:12:00,53.0,45.0,-100.00,SSW,199,4.0,6.0,75,-99.99,,,-99.99,,2013-02-19 02:12:00,
2013-02-18 18:33:00,52.0,45.0,-100.00,SSW,195,4.0,7.0,76,-99.99,,,-99.99,,2013-02-19 02:33:00,
2013-02-18 18:42:00,52.0,45.0,-100.00,South,189,5.0,8.0,76,-99.99,,,-99.99,,2013-02-19 02:42:00,
2013-02-18 18:52:00,52.0,45.0,-100.00,SSW,195,4.0,5.0,77,-99.99,,,-99.99,,2013-02-19 02:52:00,
2013-02-18 19:03:00,52.0,45.0,-100.00,SSW,195,4.0,5.0,77,-99.99,,,-99.99,,2013-02-19 03:03:00,
2013-02-18 19:12:00,52.0,45.0,-100.00,South,190,4.0,6.0,77,-99.99,,,-99.99,,2013-02-19 03:12:00,
2013-02-18 19:22:00,52.0,45.0,-100.00,South,179,4.0,7.0,76,-99.99,,,-99.99,,2013-02-19 03:22:00,
2013-02-18 19:32:00,52.0,45.0,-100.00,SSE,168,3.0,5.0,76,-99.99,,,-99.99,,2013-02-19 03:32:00,
2013-02-18 19:42:00,52.0,45.0,-100.00,SE,135,5.0,9.0,76,-99.99,,,-99.99,,2013-02-19 03:42:00,
2013-02-18 19:52:00,52.0,45.0,-100.00,SE,131,5.0,9.0,76,-99.99,,,-99.99,,2013-02-19 03:52:00,
2013-02-18 20:01:00,52.0,44.0,-100.00,ESE,110,3.0,7.0,75,-99.99,,,-99.99,,2013-02-19 04:01:00,
2013-02-18 20:12:00,52.0,44.0,-100.00,ESE,103,3.0,6.0,75,-99.99,,,-99.99,,2013-02-19 04:12:00,
2013-02-18 20:22:00,52.0,44.0,-100.00,ESE,113,2.0,4.0,75,-99.99,,,-99.99,,2013-02-19 04:22:00,
2013-02-18 20:32:00,52.0,44.0,-100.00,ESE,123,3.0,5.0,75,-99.99,,,-99.99,,2013-02-19 04:32:00,
2013-02-18 20:42:00,52.0,44.0,-100.00,ESE,122,2.0,4.0,75,-99.99,,,-99.99,,2013-02-19 04:42:00,
2013-02-18 20:52:00,52.0,44.0,-100.00,SE,141,2.0,5.0,75,-99.99,,,-99.99,,2013-02-19 04:52:00,
2013-02-18 21:01:00,52.0,44.0,-100.00,SSE,164,2.0,4.0,75,-99.99,,,-99.99,,2013-02-19 05:01:00,
2013-02-18 21:12:00,52.0,44.0,-100.00,SSE,152,3.0,6.0,75,-99.99,,,-99.99,,2013-02-19 05:12:00,
2013-02-18 21:22:00,52.0,44.0,-100.00,SSE,152,3.0,7.0,75,-99.99,,,-99.99,,2013-02-19 05:22:00,
2013-02-18 21:32:00,52.0,44.0,-100.00,SSE,147,4.0,7.0,75,-99.99,,,-99.99,,2013-02-19 05:32:00,
2013-02-18 21:42:00,52.0,44.0,-100.00,SE,142,2.0,5.0,75,-99.99,,,-99.99,,2013-02-19 05:42:00,
2013-02-18 21:52:00,52.0,44.0,-100.00,SSE,152,3.0,6.0,75,-99.99,,,-99.99,,2013-02-19 05:52:00,
2013-02-18 22:02:00,52.0,44.0,-100.00,SSE,153,3.0,6.0,75,-99.99,,,-99.99,,2013-02-19 06:02:00,
2013-02-18 22:11:00,52.0,44.0,-100.00,SSE,148,2.0,7.0,75,-99.99,,,-99.99,,2013-02-19 06:11:00,
2013-02-18 22:21:00,51.0,44.0,-100.00,SSE,154,3.0,6.0,76,-99.99,,,-99.99,,2013-02-19 06:21:00,
2013-02-18 22:32:00,51.0,43.0,-100.00,SSE,168,4.0,7.0,75,-99.99,,,-99.99,,2013-02-19 06:32:00,
2013-02-18 22:42:00,51.0,43.0,-100.00,SSE,159,3.0,7.0,74,-99.99,,,-99.99,,2013-02-19 06:42:00,
2013-02-18 22:52:00,52.0,44.0,-100.00,SSE,154,3.0,5.0,73,-99.99,,,-99.99,,2013-02-19 06:52:00,
2013-02-18 23:01:00,52.0,44.0,-100.00,South,176,3.0,6.0,73,-99.99,,,-99.99,,2013-02-19 07:01:00,
2013-02-18 23:11:00,52.0,44.0,-100.00,South,172,3.0,5.0,74,-99.99,,,-99.99,,2013-02-19 07:11:00,
2013-02-18 23:21:00,51.0,43.0,-100.00,South,175,3.0,7.0,74,-99.99,,,-99.99,,2013-02-19 07:21:00,
2013-02-18 23:32:00,51.0,43.0,-100.00,SE,138,3.0,6.0,75,-99.99,,,-99.99,,2013-02-19 07:32:00,
2013-02-18 23:42:00,51.0,44.0,-100.00,ESE,115,3.0,6.0,76,-99.99,,,-99.99,,2013-02-19 07:42:00,
2013-02-18 23:51:00,51.0,44.0,-100.00,East,86,3.0,4.0,77,-99.99,,,-99.99,,2013-02-19 07:51:00,